Time;durP1;ratioP1;P1;durP2;ratioP2;P2;SDS_P1;SDS_P2;PMS_P1;PMS_P2;Temp;Humidity;BMP_temperature;BMP_pressure;BME280_temperature;BME280_humidity;BME280_pressure;Samples;Min_cycle;Max_cycle;Signal;HPM_P1;HPM_P2
2020/12/12 00:00:29;;;;;;;50.37;30.20;;;;;;;7.41;91.05;93765.41;4974855;28;20429;-85
2020/12/12 00:02:56;;;;;;;47.63;28.03;;;;;;;7.32;92.13;93766.25;4974210;28;20571;-85
2020/12/12 00:05:23;;;;;;;50.30;26.07;;;;;;;7.32;92.52;93761.03;4974907;28;20472;-85
2020/12/12 00:07:49;;;;;;;41.80;21.83;;;;;;;7.35;93.34;93746.88;4975071;28;20448;-85
2020/12/12 00:10:16;;;;;;;64.53;30.37;;;;;;;7.44;92.63;93752.06;4974517;28;20448;-85
2020/12/12 00:12:42;;;;;;;53.57;27.40;;;;;;;7.55;92.81;93745.06;4977604;28;20475;-85
2020/12/12 00:15:09;;;;;;;46.00;23.07;;;;;;;7.58;92.44;93744.78;4978311;28;20441;-86
2020/12/12 00:17:35;;;;;;;33.20;19.40;;;;;;;7.62;92.67;93740.94;4978168;28;20441;-85
2020/12/12 00:20:03;;;;;;;31.30;20.07;;;;;;;7.67;92.44;93738.72;4978369;28;20441;-85
2020/12/12 00:22:29;;;;;;;45.30;22.93;;;;;;;7.55;91.79;93730.25;4978102;28;20513;-85
2020/12/12 00:24:56;;;;;;;36.23;24.77;;;;;;;7.62;91.70;93735.72;4978059;28;20437;-85
2020/12/12 00:27:22;;;;;;;38.93;23.07;;;;;;;7.63;91.77;93740.78;4978025;28;20493;-85
2020/12/12 00:29:49;;;;;;;62.03;31.90;;;;;;;7.59;92.11;93747.25;4978039;28;20480;-85
2020/12/12 00:32:16;;;;;;;53.13;31.47;;;;;;;7.60;92.13;93732.41;4978481;28;20445;-85
2020/12/12 00:34:42;;;;;;;58.67;31.37;;;;;;;7.61;92.01;93734.06;4977775;28;20460;-85
2020/12/12 00:37:10;;;;;;;81.23;36.17;;;;;;;7.59;92.31;93730.78;4977805;28;20443;-85
2020/12/12 00:39:36;;;;;;;60.47;31.60;;;;;;;7.52;92.11;93730.53;4977956;28;20545;-85
2020/12/12 00:42:03;;;;;;;58.20;33.73;;;;;;;7.42;92.95;93727.09;4977641;28;20541;-85
2020/12/12 00:44:29;;;;;;;51.53;26.17;;;;;;;7.35;92.96;93716.38;4977714;28;20441;-86
2020/12/12 00:46:55;;;;;;;62.40;29.90;;;;;;;7.47;92.86;93723.09;4977762;28;20523;-85
2020/12/12 00:49:22;;;;;;;46.83;30.10;;;;;;;7.49;93.52;93712.50;4977537;28;20439;-85
2020/12/12 00:51:48;;;;;;;51.73;29.80;;;;;;;7.49;93.01;93715.13;4977598;28;20438;-85
2020/12/12 00:54:16;;;;;;;60.27;33.43;;;;;;;7.43;93.46;93723.50;4977288;28;20511;-85
2020/12/12 00:56:42;;;;;;;77.23;36.70;;;;;;;7.38;93.02;93717.88;4977340;28;20443;-85
2020/12/12 00:59:09;;;;;;;66.47;36.57;;;;;;;7.42;92.86;93716.66;4977764;28;20506;-85
2020/12/12 01:01:35;;;;;;;63.57;37.57;;;;;;;7.45;93.31;93722.41;4976956;28;20464;-85
2020/12/12 01:04:02;;;;;;;63.13;38.07;;;;;;;7.44;93.18;93712.09;4977252;28;20575;-85
2020/12/12 01:06:28;;;;;;;64.03;35.57;;;;;;;7.49;93.41;93703.84;4977414;28;20439;-85
2020/12/12 01:08:55;;;;;;;68.27;36.47;;;;;;;7.50;93.78;93706.31;4977488;28;20879;-85
2020/12/12 01:11:22;;;;;;;64.60;36.80;;;;;;;7.61;93.82;93706.16;4977461;28;20789;-85
2020/12/12 01:13:49;;;;;;;67.80;36.80;;;;;;;7.65;93.17;93710.16;4977137;28;20532;-86
2020/12/12 01:16:16;;;;;;;74.67;40.63;;;;;;;7.72;93.88;93710.41;4977183;28;20461;-85
2020/12/12 01:18:43;;;;;;;65.60;38.07;;;;;;;7.77;94.00;93702.94;4977156;28;20444;-85
2020/12/12 01:21:14;;;;;;;61.20;37.70;;;;;;;7.77;93.64;93687.28;4977155;28;20453;-85
2020/12/12 01:23:41;;;;;;;72.97;40.40;;;;;;;7.81;93.77;93688.66;4975994;28;21006;-85
2020/12/12 01:26:07;;;;;;;68.73;39.00;;;;;;;7.86;93.81;93691.66;4976737;28;20436;-85
2020/12/12 01:28:35;;;;;;;60.57;37.23;;;;;;;7.89;93.96;93691.38;4976939;28;20888;-85
2020/12/12 01:31:02;;;;;;;68.60;38.00;;;;;;;7.93;93.59;93682.28;4976811;28;20433;-85
2020/12/12 01:33:28;;;;;;;48.70;26.43;;;;;;;7.95;93.53;93684.75;4976874;28;20431;-86
2020/12/12 01:35:55;;;;;;;45.93;26.90;;;;;;;7.93;93.21;93679.69;4976520;28;20434;-85
2020/12/12 01:38:21;;;;;;;41.23;27.63;;;;;;;7.91;93.08;93673.78;4976273;28;20450;-85
2020/12/12 01:40:48;;;;;;;43.67;25.53;;;;;;;7.84;93.00;93675.31;4976717;28;20532;-85
2020/12/12 01:43:14;;;;;;;45.00;24.67;;;;;;;7.81;93.31;93672.19;4976419;28;20483;-85
2020/12/12 01:45:42;;;;;;;45.10;26.30;;;;;;;7.87;93.79;93671.59;4976277;28;20536;-85
2020/12/12 01:48:09;;;;;;;43.77;28.13;;;;;;;7.88;94.49;93663.63;4976488;28;20433;-85
2020/12/12 01:50:36;;;;;;;43.70;26.23;;;;;;;7.88;94.29;93663.63;4976484;28;20438;-86
2020/12/12 01:53:03;;;;;;;40.90;24.80;;;;;;;7.88;94.59;93666.22;4976704;28;20467;-85
2020/12/12 01:55:31;;;;;;;51.83;28.87;;;;;;;7.89;94.75;93660.03;4976470;28;20469;-85
2020/12/12 01:57:58;;;;;;;45.50;25.37;;;;;;;7.90;95.30;93650.41;4976408;28;20455;-85
2020/12/12 02:00:25;;;;;;;38.03;24.93;;;;;;;7.91;95.58;93652.88;4976132;28;20430;-85
2020/12/12 02:02:54;;;;;;;46.00;27.60;;;;;;;7.96;95.22;93655.88;4975766;28;20978;-85
2020/12/12 02:08:17;;;;;;;31.90;21.47;;;;;;;7.72;95.53;93647.72;4966572;28;20437;-85
2020/12/12 02:10:45;;;;;;;31.63;19.83;;;;;;;7.73;96.19;93644.16;4976037;28;20469;-85
2020/12/12 02:13:13;;;;;;;28.47;19.27;;;;;;;7.80;96.09;93644.38;4975879;28;20933;-85
2020/12/12 02:15:40;;;;;;;29.87;19.30;;;;;;;7.82;96.21;93635.47;4975708;28;20500;-85
2020/12/12 02:18:18;;;;;;;29.87;21.10;;;;;;;7.75;96.62;93635.22;4975985;28;20455;-84
2020/12/12 02:20:50;;;;;;;34.40;22.13;;;;;;;7.77;96.72;93635.88;4976927;28;20470;-85
2020/12/12 02:23:18;;;;;;;32.50;21.20;;;;;;;7.80;97.44;93634.78;4975649;28;20492;-85
2020/12/12 02:25:44;;;;;;;35.47;19.20;;;;;;;7.83;97.79;93626.69;4975315;28;20519;-84
2020/12/12 02:28:13;;;;;;;29.83;20.33;;;;;;;7.89;97.69;93627.88;4975560;28;20457;-85
2020/12/12 02:30:40;;;;;;;31.57;20.20;;;;;;;7.94;97.44;93620.44;4975618;28;20442;-86
2020/12/12 02:33:06;;;;;;;26.90;17.70;;;;;;;7.99;97.17;93618.19;4975837;28;20477;-85
2020/12/12 02:35:33;;;;;;;29.57;19.37;;;;;;;7.99;96.78;93612.97;4974825;28;20846;-85
2020/12/12 02:37:59;;;;;;;27.03;19.13;;;;;;;8.03;96.54;93625.59;4975950;28;20445;-85
2020/12/12 02:40:27;;;;;;;29.90;18.20;;;;;;;8.05;96.40;93617.59;4975523;28;20535;-85
2020/12/12 02:42:53;;;;;;;24.00;16.70;;;;;;;8.07;96.06;93616.50;4975756;28;20567;-85
2020/12/12 02:45:20;;;;;;;23.77;16.70;;;;;;;8.07;96.42;93616.50;4975532;28;20787;-85
2020/12/12 02:47:48;;;;;;;26.80;19.23;;;;;;;8.10;95.69;93619.81;4975356;28;20504;-86
2020/12/12 02:50:25;;;;;;;31.63;18.37;;;;;;;8.13;95.93;93614.28;4975153;28;20444;-85
2020/12/12 02:52:52;;;;;;;27.67;18.23;;;;;;;8.11;95.87;93609.22;4975201;28;20455;-85
2020/12/12 02:55:19;;;;;;;25.20;17.07;;;;;;;8.13;95.86;93614.28;4974849;28;20554;-85
2020/12/12 02:57:46;;;;;;;24.80;16.93;;;;;;;8.13;95.75;93614.28;4975209;28;20438;-85
2020/12/12 03:00:14;;;;;;;23.43;18.33;;;;;;;8.13;95.99;93612.50;4975357;28;20775;-86
2020/12/12 03:02:41;;;;;;;27.90;18.90;;;;;;;8.13;96.03;93609.06;4975145;28;20522;-85
2020/12/12 03:05:08;;;;;;;31.53;18.53;;;;;;;8.11;95.87;93608.38;4975593;28;20782;-86
2020/12/12 03:07:35;;;;;;;22.10;16.20;;;;;;;8.07;96.43;93606.03;4975251;28;20493;-86
2020/12/12 03:10:04;;;;;;;28.37;19.27;;;;;;;8.02;96.61;93597.81;4975372;28;20448;-86
2020/12/12 03:12:31;;;;;;;21.27;14.30;;;;;;;7.92;96.91;93599.69;4975402;28;20445;-86
2020/12/12 03:14:58;;;;;;;19.43;13.90;;;;;;;7.80;97.88;93602.63;4975419;28;20456;-86
2020/12/12 03:17:25;;;;;;;19.30;13.80;;;;;;;7.71;98.50;93593.88;4974961;28;20436;-86
2020/12/12 03:19:51;;;;;;;23.00;14.90;;;;;;;7.71;98.46;93596.47;4975443;28;20476;-86
2020/12/12 03:22:18;;;;;;;17.60;13.37;;;;;;;7.58;99.25;93599.44;4975157;28;20528;-85
2020/12/12 03:24:45;;;;;;;21.87;14.07;;;;;;;7.62;99.60;93584.31;4975032;28;20567;-86
2020/12/12 03:27:11;;;;;;;19.43;13.13;;;;;;;7.59;99.88;93582.81;4975330;28;20496;-86
2020/12/12 03:29:38;;;;;;;19.07;13.40;;;;;;;7.51;99.95;93581.84;4975431;28;20851;-87
2020/12/12 03:32:06;;;;;;;24.23;15.17;;;;;;;7.56;100.00;93579.66;4975356;28;20525;-86
2020/12/12 03:34:33;;;;;;;22.40;15.40;;;;;;;7.63;100.00;93578.94;4975090;28;20429;-86
2020/12/12 03:36:59;;;;;;;22.73;14.90;;;;;;;7.69;100.00;93582.75;4975225;28;20515;-87
2020/12/12 03:39:26;;;;;;;21.53;16.93;;;;;;;7.76;100.00;93581.19;4975139;28;20540;-86
2020/12/12 03:41:52;;;;;;;20.27;15.43;;;;;;;7.82;99.83;93574.59;4975139;28;20485;-85
2020/12/12 03:44:19;;;;;;;19.57;15.27;;;;;;;7.87;99.83;93588.03;4974912;28;20956;-85
2020/12/12 03:46:45;;;;;;;18.10;14.67;;;;;;;7.87;99.03;93567.97;4976900;28;20488;-85
2020/12/12 03:49:13;;;;;;;25.53;15.50;;;;;;;7.97;99.13;93591.41;4978716;28;20439;-86
2020/12/12 03:51:39;;;;;;;24.80;15.73;;;;;;;8.00;98.67;93578.03;4978834;28;20528;-86
2020/12/12 03:54:06;;;;;;;20.77;13.97;;;;;;;7.98;98.16;93557.28;4979099;28;20564;-86
2020/12/12 03:56:32;;;;;;;22.70;16.37;;;;;;;8.00;98.46;93568.41;4978882;28;20441;-86
2020/12/12 03:58:59;;;;;;;21.93;15.07;;;;;;;8.04;98.42;93568.94;4979515;28;20468;-86
2020/12/12 04:01:25;;;;;;;19.17;14.33;;;;;;;8.03;98.78;93556.84;4978859;28;20443;-86
2020/12/12 04:03:52;;;;;;;19.10;14.33;;;;;;;8.08;97.88;93559.84;4978569;28;20491;-86
2020/12/12 04:06:21;;;;;;;25.60;16.23;;;;;;;8.10;98.00;93559.72;4978926;28;20437;-86
2020/12/12 04:08:48;;;;;;;22.77;16.50;;;;;;;8.11;98.28;93559.56;4978724;28;20448;-86
2020/12/12 04:11:15;;;;;;;27.20;16.00;;;;;;;8.12;98.29;93553.38;4978240;28;20456;-86
2020/12/12 04:13:41;;;;;;;21.30;16.07;;;;;;;8.10;98.03;93552.69;4978646;28;20445;-86
2020/12/12 04:16:08;;;;;;;22.07;15.33;;;;;;;8.13;98.20;93562.03;4978458;28;20567;-87
2020/12/12 04:18:35;;;;;;;28.50;16.10;;;;;;;8.13;97.93;93548.97;4978503;28;20802;-86
2020/12/12 04:21:01;;;;;;;21.70;16.20;;;;;;;8.16;97.81;93559.13;4978276;28;20539;-86
2020/12/12 04:23:28;;;;;;;34.43;22.40;;;;;;;7.96;97.45;93545.34;4977738;28;20492;-87
2020/12/12 04:25:55;;;;;;;26.57;19.20;;;;;;;8.02;96.89;93556.03;4978497;28;20476;-87
2020/12/12 04:28:21;;;;;;;24.07;17.70;;;;;;;8.02;97.56;93550.81;4978560;28;20454;-88
2020/12/12 04:30:48;;;;;;;25.20;15.53;;;;;;;8.03;98.14;93547.22;4978611;28;20453;-85
2020/12/12 04:33:14;;;;;;;16.83;11.27;;;;;;;7.93;97.15;93546.47;4978424;28;20445;-87
2020/12/12 04:35:40;;;;;;;21.23;14.00;;;;;;;7.89;97.30;93539.91;4977999;28;20442;-86
2020/12/12 04:38:07;;;;;;;13.53;9.60;;;;;;;7.88;96.17;93542.66;4977936;28;20448;-87
2020/12/12 04:40:34;;;;;;;9.00;7.60;;;;;;;7.69;94.97;93548.81;4977826;28;20449;-89
2020/12/12 04:43:02;;;;;;;12.70;7.33;;;;;;;7.77;94.58;93552.31;4977718;28;21068;-86
2020/12/12 04:45:29;;;;;;;5.30;4.33;;;;;;;7.63;93.69;93538.97;4980231;28;20465;-87
2020/12/12 04:47:56;;;;;;;5.33;4.83;;;;;;;7.54;93.95;93540.66;4991206;28;20446;-86
2020/12/12 04:50:28;;;;;;;3.47;3.17;;;;;;;7.60;94.07;93534.03;4989536;28;20437;-86
2020/12/12 04:52:57;;;;;;;3.33;3.03;;;;;;;7.65;95.54;93543.06;4989236;28;20453;-85
2020/12/12 04:55:25;;;;;;;2.97;2.77;;;;;;;7.64;94.67;93536.19;4988000;28;20866;-86
2020/12/12 04:57:54;;;;;;;2.67;2.47;;;;;;;7.69;93.34;93533.16;4982973;28;20504;-86
2020/12/12 05:00:20;;;;;;;2.77;2.57;;;;;;;7.70;92.54;93533.00;4978192;28;20465;-87
2020/12/12 05:02:47;;;;;;;3.47;2.40;;;;;;;7.68;93.25;93528.88;4978393;28;20539;-88
2020/12/12 05:05:13;;;;;;;2.90;2.70;;;;;;;7.72;93.07;93532.84;4978162;28;20446;-86
2020/12/12 05:07:40;;;;;;;3.00;2.77;;;;;;;7.73;93.42;93521.44;4978263;28;20453;-85
2020/12/12 05:10:07;;;;;;;3.87;2.87;;;;;;;7.76;93.59;93528.97;4977882;28;20508;-86
2020/12/12 05:12:34;;;;;;;7.83;6.10;;;;;;;7.74;93.47;93530.91;4977433;28;20449;-88
2020/12/12 05:15:01;;;;;;;11.10;6.60;;;;;;;7.74;93.98;93521.28;4978456;28;20452;-92
2020/12/12 05:17:28;;;;;;;6.77;5.67;;;;;;;7.72;93.93;93509.34;4977774;28;20438;-85
2020/12/12 05:19:54;;;;;;;6.53;5.45;;;;;;;7.82;93.92;93517.97;4977512;28;20449;-90
2020/12/12 05:22:21;;;;;;;5.77;5.00;;;;;;;7.86;93.68;93516.69;4979267;28;20457;-87
2020/12/12 05:24:47;;;;;;;5.20;4.40;;;;;;;7.86;93.83;93516.69;4977577;28;20508;-86
2020/12/12 05:27:13;;;;;;;10.30;6.00;;;;;;;7.87;93.18;93510.50;4977629;28;20443;-86
2020/12/12 05:29:40;;;;;;;5.80;5.00;;;;;;;7.89;93.51;93507.75;4976803;28;20532;-88
2020/12/12 05:32:07;;;;;;;12.97;5.93;;;;;;;7.89;92.83;93508.56;4975514;28;20461;-86
2020/12/12 05:34:34;;;;;;;8.13;5.40;;;;;;;7.85;92.90;93511.63;4975379;28;20472;-87
2020/12/12 05:37:02;;;;;;;7.27;4.93;;;;;;;7.80;93.04;93498.97;4975878;28;20509;-85
2020/12/12 05:39:28;;;;;;;4.30;3.90;;;;;;;7.78;93.24;93511.38;4976292;28;20460;-86
2020/12/12 05:41:55;;;;;;;4.23;3.30;;;;;;;7.80;93.69;93503.38;4972822;28;20809;-87
2020/12/12 05:44:24;;;;;;;3.40;3.10;;;;;;;7.80;94.14;93503.38;4974422;28;20492;-87
2020/12/12 05:47:15;;;;;;;3.97;3.37;;;;;;;7.78;93.97;93500.94;4973961;28;20516;-85
2020/12/12 05:49:54;;;;;;;4.73;3.70;;;;;;;7.76;94.53;93502.88;4982166;28;20472;-85
2020/12/12 05:54:50;;;;;;;5.30;4.80;;;;;;;7.74;94.30;93504.81;5020565;23;20524;-80
2020/12/12 05:57:18;;;;;;;7.57;5.90;;;;;;;7.73;94.03;93503.16;4957443;28;20454;-80
2020/12/12 05:59:47;;;;;;;11.40;6.40;;;;;;;7.75;93.79;93501.22;4957502;28;20517;-79
2020/12/12 06:02:16;;;;;;;15.23;8.77;;;;;;;7.75;93.89;93498.59;4957403;28;20438;-79
2020/12/12 06:04:53;;;;;;;13.00;7.53;;;;;;;7.75;93.59;93501.22;4956993;28;20491;-79
2020/12/12 06:07:30;;;;;;;8.30;5.13;;;;;;;7.76;94.15;93495.03;4957109;28;20449;-80
2020/12/12 06:09:59;;;;;;;6.90;5.03;;;;;;;7.76;94.27;93492.41;4957208;28;20811;-79
2020/12/12 06:12:26;;;;;;;4.20;3.80;;;;;;;7.74;94.08;93494.34;4957656;28;20476;-79
2020/12/12 06:14:56;;;;;;;18.93;7.83;;;;;;;7.73;93.67;93492.72;4957175;28;20950;-79
2020/12/12 06:17:50;;;;;;;12.70;7.03;;;;;;;7.70;93.86;93493.84;4957422;28;20458;-80
2020/12/12 06:20:23;;;;;;;11.23;7.77;;;;;;;7.67;93.93;93498.53;4957383;28;20533;-80
2020/12/12 06:22:54;;;;;;;9.43;6.17;;;;;;;7.63;93.91;93491.97;4957578;28;20442;-79
2020/12/12 06:25:21;;;;;;;7.07;5.17;;;;;;;7.60;94.98;93489.66;4957384;28;20453;-80
2020/12/12 06:27:52;;;;;;;6.10;5.33;;;;;;;7.57;94.88;93487.34;4957277;28;20437;-79
2020/12/12 06:30:21;;;;;;;7.80;5.50;;;;;;;7.56;94.36;93486.53;4957170;28;20442;-79
2020/12/12 06:32:48;;;;;;;6.10;4.70;;;;;;;7.54;95.10;93487.63;4958809;28;20952;-79
2020/12/12 06:35:15;;;;;;;5.30;4.73;;;;;;;7.43;95.18;93486.03;4959675;28;20536;-80
2020/12/12 06:37:42;;;;;;;9.43;6.07;;;;;;;7.41;95.20;93490.56;4957593;28;21030;-79
2020/12/12 06:40:14;;;;;;;6.53;5.73;;;;;;;7.39;95.36;93485.50;4956597;28;20769;-79
2020/12/12 06:42:42;;;;;;;8.00;5.30;;;;;;;7.43;95.49;93492.06;4956722;28;20872;-80
2020/12/12 06:45:33;;;;;;;8.90;7.17;;;;;;;7.40;95.83;93489.75;4957156;28;20488;-80
2020/12/12 06:48:01;;;;;;;23.37;15.40;;;;;;;7.39;95.91;93479.47;4947493;28;20468;-80
2020/12/12 06:50:31;;;;;;;18.97;13.90;;;;;;;7.41;95.59;93482.75;4957866;28;20871;-80
2020/12/12 06:53:01;;;;;;;23.80;13.10;;;;;;;7.42;95.59;93479.97;4957186;28;20537;-80
2020/12/12 06:55:28;;;;;;;16.03;8.80;;;;;;;7.38;95.32;93478.63;4957051;29;20461;-79
2020/12/12 06:57:58;;;;;;;8.87;6.90;;;;;;;7.31;95.38;93476.75;4957592;28;20449;-80
2020/12/12 07:00:31;;;;;;;10.63;6.63;;;;;;;7.30;95.46;93486.38;4957238;28;20549;-81
2020/12/12 07:03:00;;;;;;;15.57;9.97;;;;;;;7.32;95.18;93483.63;4956756;28;21018;-79
2020/12/12 07:05:29;;;;;;;16.13;9.43;;;;;;;7.34;94.94;93482.50;4958245;28;20531;-81
2020/12/12 07:08:01;;;;;;;12.80;6.67;;;;;;;7.33;94.62;93480.88;4973898;28;20445;-81
2020/12/12 07:10:29;;;;;;;11.47;5.73;;;;;;;7.31;94.84;93476.75;4974479;28;20443;-81
2020/12/12 07:12:56;;;;;;;8.53;5.33;;;;;;;7.25;94.27;93472.94;4974535;28;20451;-81
2020/12/12 07:15:23;;;;;;;8.33;5.37;;;;;;;7.17;94.73;93472.00;4972368;28;20807;-81
2020/12/12 07:17:49;;;;;;;12.30;7.60;;;;;;;7.16;94.71;93473.78;4974408;28;20971;-80
2020/12/12 07:20:17;;;;;;;5.80;5.20;;;;;;;7.13;94.92;93468.88;4975565;28;20437;-79
2020/12/12 07:22:48;;;;;;;10.63;6.60;;;;;;;7.00;95.22;93469.22;4976488;28;20788;-80
2020/12/12 07:25:16;;;;;;;7.93;5.20;;;;;;;7.09;95.10;93463.13;4975723;28;20488;-79
2020/12/12 07:27:44;;;;;;;7.33;5.27;;;;;;;7.12;95.79;93454.19;4975861;28;20445;-80
2020/12/12 07:30:24;;;;;;;9.17;7.07;;;;;;;7.13;95.11;93461.06;4975558;28;20441;-79
2020/12/12 07:32:51;;;;;;;9.93;6.53;;;;;;;7.11;94.68;93463.81;4975853;28;20766;-80
2020/12/12 07:35:17;;;;;;;21.10;8.63;;;;;;;7.13;94.86;93461.06;4973040;28;20448;-80
2020/12/12 07:37:44;;;;;;;26.63;11.60;;;;;;;7.11;94.94;93453.38;4973915;28;20448;-80
2020/12/12 07:40:10;;;;;;;22.97;10.20;;;;;;;7.07;94.60;93449.41;4973245;28;20442;-80
2020/12/12 07:42:37;;;;;;;55.10;17.13;;;;;;;7.12;94.55;93462.00;4973199;28;20455;-80
2020/12/12 07:45:17;;;;;;;51.10;22.57;;;;;;;7.11;94.79;93455.16;4973654;28;20484;-80
2020/12/12 07:47:47;;;;;;;26.70;12.57;;;;;;;7.07;95.09;93452.03;4974800;28;20807;-80
2020/12/12 07:50:15;;;;;;;49.57;23.40;;;;;;;7.07;94.77;93453.81;4976241;28;20476;-80
2020/12/12 07:52:43;;;;;;;14.40;9.93;;;;;;;7.07;94.65;93446.81;4977502;28;20477;-80
2020/12/12 07:55:20;;;;;;;18.43;8.80;;;;;;;7.04;95.38;93451.50;4978371;28;20484;-80
2020/12/12 07:57:52;;;;;;;10.65;7.43;;;;;;;7.03;94.88;93453.28;4978046;28;20470;-78
2020/12/12 08:00:31;;;;;;;8.50;6.83;;;;;;;7.06;94.81;93452.16;4978178;28;20212;-79
2020/12/12 08:02:58;;;;;;;6.47;5.77;;;;;;;7.09;94.66;93451.88;4976955;28;20445;-78
2020/12/12 08:05:25;;;;;;;6.10;5.60;;;;;;;7.11;94.10;93447.34;4977249;28;20462;-79
2020/12/12 08:07:52;;;;;;;6.80;5.67;;;;;;;7.14;94.40;93447.88;4982979;28;20444;-80
2020/12/12 08:10:18;;;;;;;7.43;5.93;;;;;;;7.15;94.60;93446.91;4997174;28;20964;-79
2020/12/12 08:12:46;;;;;;;6.27;4.67;;;;;;;7.19;94.16;93441.38;4996861;28;20470;-80
2020/12/12 08:15:17;;;;;;;4.50;4.10;;;;;;;7.21;94.88;93444.66;4992793;28;20450;-80
2020/12/12 08:17:44;;;;;;;4.93;4.47;;;;;;;7.25;95.31;93439.03;4981398;28;20971;-79
2020/12/12 08:20:14;;;;;;;6.20;4.77;;;;;;;7.32;95.51;93441.88;4983919;28;20448;-81
2020/12/12 08:22:41;;;;;;;4.30;3.90;;;;;;;7.35;95.55;93442.41;4994044;28;20935;-81
2020/12/12 08:25:09;;;;;;;5.40;4.60;;;;;;;7.45;95.78;93444.94;4982912;28;20484;-81
2020/12/12 08:27:36;;;;;;;7.67;4.70;;;;;;;7.60;100.00;93440.06;4973698;28;20459;-82
2020/12/12 08:30:07;;;;;;;26.80;10.40;;;;;;;7.85;100.00;93436.72;4974868;28;20446;-83
2020/12/12 08:32:36;;;;;;;19.80;10.53;;;;;;;7.89;99.27;93434.63;4989470;28;20804;-80
2020/12/12 08:35:16;;;;;;;22.20;10.17;;;;;;;7.81;95.29;93445.81;4997500;28;20444;-80
2020/12/12 08:37:58;;;;;;;17.67;7.70;;;;;;;7.81;93.74;93447.63;4997862;28;20488;-82
2020/12/12 08:40:27;;;;;;;8.03;5.83;;;;;;;7.83;92.95;93449.09;4998019;28;20528;-84
2020/12/12 08:43:05;;;;;;;4.90;3.83;;;;;;;7.86;93.24;93438.34;4998795;28;20852;-84
2020/12/12 08:45:32;;;;;;;7.57;5.80;;;;;;;7.92;93.16;93445.59;4998180;28;20437;-86
2020/12/12 08:48:08;;;;;;;7.30;6.43;;;;;;;7.97;92.84;93443.34;4998408;28;20481;-83
2020/12/12 08:50:46;;;;;;;12.00;7.23;;;;;;;7.97;93.13;93440.72;4998470;28;20447;-84
2020/12/12 08:53:21;;;;;;;8.90;7.37;;;;;;;8.02;93.19;93438.47;4997721;28;20562;-89
2020/12/12 08:56:08;;;;;;;10.47;6.80;;;;;;;8.04;93.53;93444.38;4998398;28;20447;-82
2020/12/12 08:58:39;;;;;;;11.40;7.67;;;;;;;8.08;93.37;93439.66;4997958;28;20441;-81
2020/12/12 09:01:19;;;;;;;10.07;6.60;;;;;;;8.11;93.10;93433.34;4997612;28;20448;-82
2020/12/12 09:03:57;;;;;;;6.47;5.70;;;;;;;8.15;92.84;93437.28;4997386;28;20483;-83
2020/12/12 09:06:26;;;;;;;6.23;5.23;;;;;;;8.23;93.13;93435.56;4997584;28;20432;-81
2020/12/12 09:09:10;;;;;;;5.20;4.47;;;;;;;8.30;93.21;93433.16;4999759;28;20929;-81
2020/12/12 09:11:38;;;;;;;5.80;5.03;;;;;;;8.31;92.07;93434.78;5000429;28;20948;-81
2020/12/12 09:14:05;;;;;;;8.40;7.07;;;;;;;8.30;91.47;93436.59;5000265;28;20447;-81
2020/12/12 09:16:32;;;;;;;8.60;7.10;;;;;;;8.22;92.34;93426.06;4999965;28;20444;-80
2020/12/12 09:18:59;;;;;;;13.17;9.50;;;;;;;8.32;93.06;93429.41;5000406;28;20471;-81
2020/12/12 09:21:26;;;;;;;12.57;9.60;;;;;;;8.38;93.43;93428.00;4999915;28;20841;-81
2020/12/12 09:23:53;;;;;;;22.60;13.23;;;;;;;8.41;93.85;93425.09;5000178;28;20548;-80
2020/12/12 09:26:21;;;;;;;15.73;10.00;;;;;;;8.32;93.70;93415.53;4999762;28;20471;-81
2020/12/12 09:28:48;;;;;;;39.93;21.37;;;;;;;8.37;94.33;93415.91;4999226;28;20463;-80
2020/12/12 09:31:16;;;;;;;16.77;10.83;;;;;;;8.24;94.89;93413.69;5000316;28;20436;-80
2020/12/12 09:33:43;;;;;;;17.97;11.10;;;;;;;8.16;95.72;93404.97;4999298;28;20527;-82
2020/12/12 09:36:11;;;;;;;18.40;12.97;;;;;;;7.98;96.73;93408.41;4996962;28;20466;-86
2020/12/12 09:38:38;;;;;;;24.97;14.27;;;;;;;7.83;96.10;93415.16;4994495;28;20495;-82
2020/12/12 09:41:04;;;;;;;23.07;14.37;;;;;;;7.69;97.07;93406.03;4976492;28;20785;-80
2020/12/12 09:43:31;;;;;;;8.07;6.20;;;;;;;7.60;96.79;93401.72;4976887;28;20489;-81
2020/12/12 09:45:58;;;;;;;9.77;7.20;;;;;;;7.48;97.38;93405.50;4976941;28;20452;-81
2020/12/12 09:48:24;;;;;;;18.90;11.87;;;;;;;7.39;97.11;93409.81;4977056;28;20456;-81
2020/12/12 09:50:51;;;;;;;12.63;9.20;;;;;;;7.30;97.31;93400.28;4974698;28;20833;-82
2020/12/12 09:53:19;;;;;;;7.80;6.43;;;;;;;7.27;97.30;93391.94;4995756;28;21011;-80
2020/12/12 09:55:47;;;;;;;5.87;5.07;;;;;;;7.24;97.23;93400.06;4995337;28;20899;-79
2020/12/12 09:58:14;;;;;;;9.63;7.07;;;;;;;7.20;97.79;93396.88;4996653;28;20448;-79
2020/12/12 10:00:42;;;;;;;8.20;6.50;;;;;;;7.14;97.51;93389.66;4996359;28;20463;-79
2020/12/12 10:03:09;;;;;;;18.27;8.90;;;;;;;7.13;98.18;93401.88;4987529;28;20440;-80
2020/12/12 10:05:37;;;;;;;50.00;20.50;;;;;;;7.09;98.53;93394.50;4995285;28;20536;-79
2020/12/12 10:08:05;;;;;;;69.72;34.65;;;;;;;7.10;98.02;93399.56;4995324;28;20436;-83
2020/12/12 10:10:33;;;;;;;60.50;34.85;;;;;;;7.15;97.66;93399.13;4995422;28;20436;-81
2020/12/12 10:13:00;;;;;;;7.90;6.20;;;;;;;7.12;96.11;93402.03;4996456;28;20201;-86
2020/12/12 10:15:28;;;;;;;6.93;4.57;;;;;;;7.12;95.62;93402.03;4996089;28;20455;-81
2020/12/12 10:17:55;;;;;;;32.90;16.47;;;;;;;7.12;96.99;93399.41;4985903;28;20861;-81
2020/12/12 10:20:23;;;;;;;61.70;26.00;;;;;;;7.16;96.88;93392.94;4976533;28;20443;-80
2020/12/12 10:22:51;;;;;;;68.00;21.30;;;;;;;7.16;95.66;93403.38;4977919;28;20557;-80
2020/12/12 10:25:18;;;;;;;29.30;13.40;;;;;;;7.11;95.75;93396.00;4976457;28;20571;-80
2020/12/12 10:27:45;;;;;;;33.03;13.07;;;;;;;7.09;95.85;93390.09;4976390;28;20465;-81
2020/12/12 10:30:13;;;;;;;28.23;12.63;;;;;;;6.98;97.00;93389.50;4975706;28;20449;-80
2020/12/12 10:32:40;;;;;;;36.83;16.53;;;;;;;7.01;97.90;93392.63;4977591;28;20452;-80
2020/12/12 10:35:09;;;;;;;27.70;13.23;;;;;;;6.99;98.47;93391.13;4976102;28;20455;-81
2020/12/12 10:37:36;;;;;;;38.60;15.80;;;;;;;6.95;98.28;93395.00;4976001;28;20962;-80
2020/12/12 10:40:10;;;;;;;25.10;12.50;;;;;;;6.92;99.06;93384.81;4975869;28;20525;-80
2020/12/12 10:42:38;;;;;;;77.87;25.53;;;;;;;6.95;98.91;93389.78;4989038;28;20480;-81
2020/12/12 10:45:07;;;;;;;44.93;22.90;;;;;;;6.92;98.74;93384.81;4994940;28;20484;-80
2020/12/12 10:47:33;;;;;;;54.60;21.97;;;;;;;6.88;99.04;93380.88;4995575;28;20942;-80
2020/12/12 10:50:00;;;;;;;55.37;22.63;;;;;;;6.87;98.94;93379.25;4993586;28;20459;-80
2020/12/12 10:52:27;;;;;;;31.27;14.70;;;;;;;6.91;99.87;93377.97;4976219;28;20460;-81
2020/12/12 10:54:54;;;;;;;14.53;10.47;;;;;;;6.97;99.47;93378.25;4975574;28;20476;-84
2020/12/12 10:57:20;;;;;;;26.10;12.90;;;;;;;6.94;99.45;93375.94;4979789;28;20542;-81
2020/12/12 10:59:47;;;;;;;24.07;11.97;;;;;;;6.88;99.05;93371.25;4975464;28;20503;-81
2020/12/12 11:02:16;;;;;;;61.00;19.70;;;;;;;6.91;99.37;93376.19;4975405;28;20884;-80
2020/12/12 11:04:43;;;;;;;34.50;15.60;;;;;;;6.89;98.94;93380.72;4975190;28;21056;-80
2020/12/12 11:07:10;;;;;;;19.67;9.83;;;;;;;6.96;98.43;93389.63;4975683;28;20445;-79
2020/12/12 11:09:38;;;;;;;19.30;9.17;;;;;;;7.07;99.46;93380.78;4975550;28;20492;-80
2020/12/12 11:12:05;;;;;;;48.33;18.67;;;;;;;7.13;98.42;93385.41;4975678;28;20452;-80
2020/12/12 11:14:34;;;;;;;35.00;14.10;;;;;;;7.12;97.02;93378.56;4976535;28;21033;-80
2020/12/12 11:17:01;;;;;;;20.47;10.73;;;;;;;7.13;96.61;93382.81;4969196;28;20554;-81
2020/12/12 11:19:29;;;;;;;14.90;9.10;;;;;;;7.14;96.79;93381.84;4965222;28;20465;-81
2020/12/12 11:21:56;;;;;;;17.67;10.43;;;;;;;7.17;97.41;93380.72;4964200;28;20817;-80
2020/12/12 11:24:24;;;;;;;15.27;8.40;;;;;;;7.24;98.33;93377.41;4965529;28;20485;-81
2020/12/12 11:26:52;;;;;;;18.57;10.73;;;;;;;7.30;98.32;93376.78;4967168;28;20466;-80
2020/12/12 11:29:19;;;;;;;21.00;11.73;;;;;;;7.36;97.12;93376.19;4970486;28;20977;-80
2020/12/12 11:31:49;;;;;;;30.80;13.67;;;;;;;7.31;97.30;93382.84;4968448;28;20547;-80
2020/12/12 11:34:22;;;;;;;28.40;15.07;;;;;;;7.42;96.61;93383.44;4964301;28;20467;-81
2020/12/12 11:39:35;;;;;;;17.33;9.53;;;;;;;7.57;95.32;93375.91;4974146;28;20449;-79
2020/12/12 11:42:19;;;;;;;18.03;11.70;;;;;;;7.65;95.21;93375.16;4977143;28;20800;-80
2020/12/12 11:45:09;;;;;;;14.33;8.40;;;;;;;7.76;94.50;93380.97;4978114;28;20910;-79